createdAt,value
2022-09-05T00:00:32.448Z,20.65
2022-09-05T00:01:07.630Z,20.66
2022-09-05T00:01:43.152Z,20.64
2022-09-05T00:02:18.716Z,20.62
2022-09-05T00:02:54.045Z,20.64
2022-09-05T00:03:29.519Z,20.61
2022-09-05T00:04:23.577Z,20.59
2022-09-05T00:04:39.866Z,20.71
2022-09-05T00:05:14.942Z,20.65
2022-09-05T00:06:02.251Z,20.72
2022-09-05T00:06:25.747Z,20.66
2022-09-05T00:07:00.964Z,20.64
2022-09-05T00:07:59.524Z,20.62
2022-09-05T00:08:11.369Z,20.59
2022-09-05T00:08:46.589Z,20.69
2022-09-05T00:09:21.985Z,20.65
2022-09-05T00:09:57.332Z,20.65
2022-09-05T00:10:36.025Z,20.65
2022-09-05T00:11:41.393Z,20.74
2022-09-05T00:11:44.088Z,20.68
2022-09-05T00:12:17.906Z,20.72
2022-09-05T00:13:06.744Z,20.61
2022-09-05T00:13:28.103Z,20.68
2022-09-05T00:14:03.194Z,20.59
2022-09-05T00:15:16.765Z,20.59
2022-09-05T00:15:17.432Z,20.59
2022-09-05T00:15:49.640Z,20.61
2022-09-05T00:16:24.861Z,20.65
2022-09-05T00:16:59.767Z,20.59
2022-09-05T00:18:44.065Z,20.61
2022-09-05T00:19:57.366Z,20.62
2022-09-05T00:23:29.025Z,20.51
2022-09-05T00:24:22.615Z,20.54
2022-09-05T00:24:22.839Z,20.54
2022-09-05T00:24:25.893Z,20.49
2022-09-05T00:24:25.897Z,20.43
2022-09-05T00:24:27.647Z,20.42
2022-09-05T00:24:31.663Z,20.41
2022-09-05T00:24:33.057Z,20.53
2022-09-05T00:24:35.236Z,20.46
2022-09-05T00:24:37.608Z,20.49
2022-09-05T00:24:54.689Z,20.38
2022-09-05T00:25:30.711Z,20.46
2022-09-05T00:25:48.962Z,20.38
2022-09-05T00:26:24.451Z,20.41
2022-09-05T00:26:59.729Z,20.41
2022-09-05T00:27:35.131Z,20.28
2022-09-05T00:28:26.529Z,20.38
2022-09-05T00:28:45.678Z,20.38
2022-09-05T00:29:30.304Z,20.35
2022-09-05T00:31:08.639Z,20.34
2022-09-05T00:31:51.071Z,20.30
2022-09-05T00:31:53.694Z,20.21
2022-09-05T00:31:54.303Z,20.25
2022-09-05T00:32:16.858Z,20.30
2022-09-05T00:32:52.260Z,20.25
2022-09-05T00:33:27.340Z,20.34
2022-09-05T00:34:02.231Z,20.33
2022-09-05T00:34:46.510Z,20.23
2022-09-05T00:35:13.113Z,20.25
2022-09-05T00:35:48.324Z,20.27
2022-09-05T00:36:23.718Z,20.21
2022-09-05T00:36:58.823Z,20.18
2022-09-05T00:37:34.333Z,20.13
2022-09-05T00:38:09.713Z,20.21
2022-09-05T00:38:44.715Z,20.15
2022-09-05T00:39:19.960Z,20.21
2022-09-05T00:40:17.962Z,20.18
2022-09-05T00:40:30.472Z,20.21
2022-09-05T00:41:05.618Z,20.23
2022-09-05T00:41:40.925Z,20.20
2022-09-05T00:42:16.004Z,20.12
2022-09-05T00:42:51.426Z,20.15
2022-09-05T00:43:26.735Z,20.09
2022-09-05T00:44:01.911Z,20.12
2022-09-05T00:44:37.230Z,20.18
2022-09-05T00:45:19.602Z,20.10
2022-09-05T00:45:47.535Z,20.18
2022-09-05T00:46:22.674Z,20.12
2022-09-05T00:46:57.854Z,20.06
2022-09-05T00:47:33.348Z,20.03
2022-09-05T00:48:08.732Z,20.05
2022-09-05T00:48:43.920Z,19.98
2022-09-05T00:49:19.427Z,19.98
2022-09-05T00:49:54.659Z,20.03
2022-09-05T00:50:29.840Z,19.97
2022-09-05T00:51:05.231Z,19.88
2022-09-05T00:51:40.457Z,19.94
2022-09-05T00:52:15.847Z,19.90
2022-09-05T00:53:07.310Z,19.91
2022-09-05T00:53:26.579Z,19.84
2022-09-05T00:54:01.968Z,19.87
2022-09-05T00:54:40.955Z,19.93
2022-09-05T00:55:12.375Z,19.87
2022-09-05T00:55:47.796Z,19.94
2022-09-05T00:56:22.815Z,19.93
2022-09-05T00:56:57.940Z,19.73
2022-09-05T00:57:33.550Z,19.90
2022-09-05T00:58:08.840Z,19.83
2022-09-05T00:58:44.140Z,19.73
2022-09-05T00:59:19.443Z,19.78
2022-09-05T00:59:59.016Z,19.84
2022-09-05T01:00:29.849Z,19.88
2022-09-05T01:01:20.501Z,19.75
2022-09-05T01:01:40.241Z,19.91
2022-09-05T01:02:15.461Z,19.90
2022-09-05T01:02:51.530Z,19.94
2022-09-05T01:03:26.015Z,19.88
2022-09-05T01:04:01.145Z,19.97
2022-09-05T01:04:36.370Z,19.87
2022-09-05T01:05:11.654Z,19.98
2022-09-05T01:05:46.988Z,19.88
2022-09-05T01:06:22.115Z,19.95
2022-09-05T01:06:57.337Z,20.08
2022-09-05T01:07:32.455Z,20.09
2022-09-05T01:08:07.928Z,20.08
2022-09-05T01:08:43.123Z,20.10
2022-09-05T01:09:18.427Z,20.10
2022-09-05T01:09:53.636Z,20.08
2022-09-05T01:10:29.018Z,19.97
2022-09-05T01:11:04.726Z,20.00
2022-09-05T01:11:40.027Z,19.88
2022-09-05T01:12:15.310Z,19.86
2022-09-05T01:12:53.141Z,19.90
2022-09-05T01:13:25.661Z,19.90
2022-09-05T01:14:00.964Z,19.87
2022-09-05T01:14:36.275Z,19.83
2022-09-05T01:15:11.247Z,19.76
2022-09-05T01:15:46.496Z,19.75
2022-09-05T01:16:22.014Z,19.75
2022-09-05T01:16:57.285Z,19.78
2022-09-05T01:17:33.253Z,19.76
2022-09-05T01:18:08.429Z,19.84
2022-09-05T01:18:43.368Z,19.73
2022-09-05T01:19:19.431Z,19.76
2022-09-05T01:19:54.770Z,19.78
2022-09-05T01:20:32.109Z,19.83
2022-09-05T01:21:05.364Z,19.79
2022-09-05T01:21:41.021Z,19.75
2022-09-05T01:22:16.171Z,19.78
2022-09-05T01:22:51.554Z,19.76
2022-09-05T01:23:27.133Z,19.84
2022-09-05T01:24:02.229Z,19.98
2022-09-05T01:24:37.711Z,19.93
2022-09-05T01:25:12.892Z,19.98
2022-09-05T01:25:54.781Z,19.90
2022-09-05T01:26:23.559Z,19.95
2022-09-05T01:26:58.897Z,20.02
2022-09-05T01:28:15.423Z,19.93
2022-09-05T01:29:16.479Z,19.91
2022-09-05T01:29:16.894Z,20.00
2022-09-05T01:29:19.967Z,19.91
2022-09-05T01:29:55.075Z,19.91
2022-09-05T01:30:32.079Z,19.88
2022-09-05T01:31:05.330Z,19.87
2022-09-05T01:31:40.467Z,19.90
2022-09-05T01:32:15.886Z,19.88
2022-09-05T01:32:51.197Z,19.91
2022-09-05T01:33:26.228Z,19.80
2022-09-05T01:34:01.492Z,19.94
2022-09-05T01:34:37.107Z,19.88
2022-09-05T01:35:12.310Z,19.84
2022-09-05T01:35:52.321Z,19.80
2022-09-05T01:36:23.640Z,19.69
2022-09-05T01:36:59.053Z,19.73
2022-09-05T01:37:34.404Z,19.69
2022-09-05T01:38:09.157Z,19.61
2022-09-05T01:38:48.342Z,19.68
2022-09-05T01:40:11.276Z,19.68
2022-09-05T01:40:14.374Z,19.66
2022-09-05T01:40:30.347Z,19.65
2022-09-05T01:41:18.849Z,19.60
2022-09-05T01:41:40.876Z,19.65
2022-09-05T01:42:16.069Z,19.57
2022-09-05T01:42:51.284Z,19.58
2022-09-05T01:43:26.470Z,19.60
2022-09-05T01:44:01.570Z,19.61
2022-09-05T01:44:36.784Z,19.70
2022-09-05T01:45:12.064Z,19.65
2022-09-05T01:45:47.292Z,19.68
2022-09-05T01:46:22.399Z,19.72
2022-09-05T01:46:57.796Z,19.69
2022-09-05T01:47:32.902Z,19.65
2022-09-05T01:48:07.896Z,19.66
2022-09-05T01:48:47.618Z,19.70
2022-09-05T01:49:18.734Z,19.69
2022-09-05T01:49:53.923Z,19.75
2022-09-05T01:50:28.928Z,19.73
2022-09-05T01:51:05.363Z,19.75
2022-09-05T01:51:39.311Z,19.78
2022-09-05T01:52:14.601Z,19.72
2022-09-05T01:52:49.493Z,19.79
2022-09-05T01:53:25.045Z,19.78
2022-09-05T01:54:00.084Z,19.73
2022-09-05T01:54:35.275Z,19.76
2022-09-05T01:55:10.354Z,19.80
2022-09-05T01:56:04.578Z,19.80
2022-09-05T01:56:20.462Z,19.78
2022-09-05T01:56:55.656Z,19.84
2022-09-05T01:57:30.859Z,19.78
2022-09-05T01:58:05.869Z,19.73
2022-09-05T01:58:41.286Z,19.86
2022-09-05T01:59:16.572Z,19.72
2022-09-05T01:59:51.959Z,19.86
2022-09-05T02:00:27.264Z,19.72
2022-09-05T02:01:26.624Z,19.79
2022-09-05T02:01:38.160Z,19.75
2022-09-05T02:02:13.278Z,19.75
2022-09-05T02:02:50.751Z,19.78
2022-09-05T02:03:23.912Z,19.76
2022-09-05T02:03:58.774Z,19.76
2022-09-05T02:04:34.003Z,19.76
2022-09-05T02:05:09.175Z,19.78
2022-09-05T02:05:49.236Z,19.78
2022-09-05T02:06:19.618Z,19.80
2022-09-05T02:06:54.925Z,19.78
2022-09-05T02:07:31.482Z,19.75
2022-09-05T02:08:05.454Z,19.75
2022-09-05T02:08:41.007Z,19.79
2022-09-05T02:09:15.966Z,19.79
2022-09-05T02:09:51.401Z,19.84
2022-09-05T02:10:26.408Z,19.76
2022-09-05T02:11:01.640Z,19.86
2022-09-05T02:11:36.951Z,19.83
2022-09-05T02:12:12.150Z,19.78
2022-09-05T02:12:56.846Z,19.80
2022-09-05T02:13:22.790Z,19.76
2022-09-05T02:13:57.910Z,19.87
2022-09-05T02:14:34.110Z,19.79
2022-09-05T02:15:08.207Z,19.84
2022-09-05T02:15:45.140Z,19.75
2022-09-05T02:16:18.658Z,19.68
2022-09-05T02:16:53.821Z,19.70
2022-09-05T02:17:49.856Z,19.72
2022-09-05T02:18:04.047Z,19.66
2022-09-05T02:18:39.046Z,19.75
2022-09-05T02:19:14.280Z,19.70
2022-09-05T02:19:49.482Z,19.69
2022-09-05T02:20:24.699Z,19.69
2022-09-05T02:21:00.117Z,19.65
2022-09-05T02:21:55.351Z,19.63
2022-09-05T02:22:10.532Z,19.73
2022-09-05T02:22:45.926Z,19.66
2022-09-05T02:23:41.251Z,19.63
2022-09-05T02:23:56.325Z,19.69
2022-09-05T02:24:31.767Z,19.66
2022-09-05T02:26:01.041Z,19.66
2022-09-05T02:26:02.983Z,19.69
2022-09-05T02:26:17.988Z,19.68
2022-09-05T02:26:53.423Z,19.68
2022-09-05T02:27:35.315Z,19.73
2022-09-05T02:28:06.005Z,19.61
2022-09-05T02:28:39.206Z,19.66
2022-09-05T02:29:29.398Z,19.68
2022-09-05T02:29:49.836Z,19.55
2022-09-05T02:30:25.238Z,19.60
2022-09-05T02:31:20.100Z,19.63
2022-09-05T02:31:35.977Z,19.57
2022-09-05T02:32:11.225Z,19.60
2022-09-05T02:32:46.318Z,19.60
2022-09-05T02:33:21.488Z,19.63
2022-09-05T02:34:02.215Z,19.54
2022-09-05T02:34:31.908Z,19.54
2022-09-05T02:35:07.041Z,19.53
2022-09-05T02:35:42.522Z,19.54
2022-09-05T02:36:17.823Z,19.60
2022-09-05T02:36:53.146Z,19.61
2022-09-05T02:38:43.965Z,19.51
2022-09-05T02:39:11.492Z,19.47
2022-09-05T02:44:08.091Z,19.47
2022-09-05T02:45:05.898Z,19.40
2022-09-05T02:45:07.816Z,19.47
2022-09-05T02:45:07.847Z,19.50
2022-09-05T02:45:12.353Z,19.36
2022-09-05T02:45:14.353Z,19.48
2022-09-05T02:45:14.355Z,19.42
2022-09-05T02:45:15.177Z,19.42
2022-09-05T02:45:20.930Z,19.39
2022-09-05T02:45:21.363Z,19.50
2022-09-05T02:45:23.789Z,19.40
2022-09-05T02:45:25.525Z,19.51
2022-09-05T02:45:41.967Z,19.43
2022-09-05T02:46:17.228Z,19.40
2022-09-05T02:46:52.572Z,19.53
2022-09-05T02:47:27.625Z,19.40
2022-09-05T02:48:14.744Z,19.46
2022-09-05T02:48:38.175Z,19.54
2022-09-05T02:50:01.592Z,19.50
2022-09-05T02:51:45.035Z,19.43
2022-09-05T02:57:17.321Z,19.54
2022-09-05T02:57:23.496Z,19.53
2022-09-05T02:57:25.071Z,19.46
2022-09-05T02:57:26.825Z,19.39
2022-09-05T02:57:29.288Z,19.48
2022-09-05T02:57:34.204Z,19.46
2022-09-05T02:57:35.241Z,19.47
2022-09-05T02:57:36.529Z,19.42
2022-09-05T02:57:38.558Z,19.48
2022-09-05T02:57:39.663Z,19.50
2022-09-05T02:57:42.485Z,19.50
2022-09-05T02:57:46.251Z,19.53
2022-09-05T02:58:04.978Z,19.47
2022-09-05T02:58:07.609Z,19.47
2022-09-05T02:58:53.569Z,19.48
2022-09-05T02:59:12.313Z,19.50
2022-09-05T02:59:47.545Z,19.58
2022-09-05T03:00:22.947Z,19.48
2022-09-05T03:00:58.553Z,19.46
2022-09-05T03:01:33.632Z,19.40
2022-09-05T03:02:25.351Z,19.47
2022-09-05T03:02:43.928Z,19.51
2022-09-05T03:03:19.086Z,19.47
2022-09-05T03:03:54.217Z,19.40
2022-09-05T03:04:29.617Z,19.36
2022-09-05T03:05:05.364Z,19.33
2022-09-05T03:05:40.359Z,19.38
2022-09-05T03:06:15.499Z,19.39
2022-09-05T03:06:50.942Z,19.38
2022-09-05T03:07:26.139Z,19.31
2022-09-05T03:08:01.268Z,19.29
2022-09-05T03:08:36.810Z,19.38
2022-09-05T03:09:17.329Z,19.36
2022-09-05T03:09:47.405Z,19.35
2022-09-05T03:10:28.233Z,19.33
2022-09-05T03:10:58.090Z,19.36
2022-09-05T03:11:33.320Z,19.32
2022-09-05T03:12:28.435Z,19.28
2022-09-05T03:12:44.046Z,19.38
2022-09-05T03:13:19.368Z,19.43
2022-09-05T03:13:54.817Z,19.36
2022-09-05T03:14:29.815Z,19.35
2022-09-05T03:15:22.389Z,19.33
2022-09-05T03:15:40.789Z,19.39
2022-09-05T03:16:16.299Z,19.39
2022-09-05T03:16:51.609Z,19.38
2022-09-05T03:17:27.085Z,19.46
2022-09-05T03:18:21.032Z,19.36
2022-09-05T03:18:37.739Z,19.35
2022-09-05T03:19:12.945Z,19.38
2022-09-05T03:19:48.161Z,19.32
2022-09-05T03:20:23.776Z,19.40
2022-09-05T03:21:09.695Z,19.32
2022-09-05T03:21:34.688Z,19.43
2022-09-05T03:22:09.901Z,19.33
2022-09-05T03:22:45.420Z,19.32
2022-09-05T03:23:20.525Z,19.33
2022-09-05T03:23:56.031Z,19.42
2022-09-05T03:24:31.351Z,19.46
2022-09-05T03:25:06.588Z,19.33
2022-09-05T03:25:41.534Z,19.39
2022-09-05T03:26:16.933Z,19.32
2022-09-05T03:26:52.365Z,19.33
2022-09-05T03:27:29.236Z,19.33
2022-09-05T03:28:02.585Z,19.33
2022-09-05T03:28:37.987Z,19.20
2022-09-05T03:29:13.392Z,19.38
2022-09-05T03:29:48.598Z,19.23
2022-09-05T03:30:23.704Z,19.39
2022-09-05T03:30:59.375Z,19.21
2022-09-05T03:31:34.201Z,19.29
2022-09-05T03:32:09.522Z,19.31
2022-09-05T03:32:44.918Z,19.21
2022-09-05T03:33:20.235Z,19.21
2022-09-05T03:33:55.576Z,19.24
2022-09-05T03:34:31.198Z,19.36
2022-09-05T03:35:08.697Z,19.23
2022-09-05T03:35:41.778Z,19.31
2022-09-05T03:36:19.028Z,19.28
2022-09-05T03:36:52.475Z,19.32
2022-09-05T03:37:28.102Z,19.23
2022-09-05T03:38:03.298Z,19.20
2022-09-05T03:38:38.502Z,19.23
2022-09-05T03:39:13.440Z,19.17
2022-09-05T03:39:48.713Z,19.23
2022-09-05T03:40:24.137Z,19.29
2022-09-05T03:40:59.367Z,19.23
2022-09-05T03:41:40.563Z,19.24
2022-09-05T03:42:14.821Z,19.28
2022-09-05T03:42:45.350Z,19.15
2022-09-05T03:43:20.568Z,19.20
2022-09-05T03:43:55.870Z,19.17
2022-09-05T03:44:31.179Z,19.29
2022-09-05T03:45:06.503Z,19.17
2022-09-05T03:45:41.877Z,19.15
2022-09-05T03:46:17.088Z,19.17
2022-09-05T03:46:52.170Z,19.17
2022-09-05T03:47:27.906Z,19.23
2022-09-05T03:48:13.323Z,19.13
2022-09-05T03:48:38.301Z,19.18
2022-09-05T03:50:38.796Z,19.06
2022-09-05T03:52:01.856Z,19.20
2022-09-05T03:56:44.001Z,19.13
2022-09-05T03:57:06.347Z,19.15
2022-09-05T03:57:06.708Z,19.13
2022-09-05T03:57:08.006Z,19.10
2022-09-05T03:57:08.931Z,19.15
2022-09-05T03:57:11.564Z,18.72
2022-09-05T03:57:14.634Z,18.95
2022-09-05T03:57:19.611Z,18.86
2022-09-05T03:57:21.026Z,18.99
2022-09-05T03:57:23.217Z,18.77
2022-09-05T03:57:26.748Z,18.98
2022-09-05T03:57:26.943Z,18.90
2022-09-05T03:57:38.460Z,18.77
2022-09-05T03:58:16.266Z,18.76
2022-09-05T03:58:56.050Z,18.73
2022-09-05T03:59:13.337Z,18.70
2022-09-05T03:59:48.751Z,18.70
2022-09-05T04:00:24.348Z,18.58
2022-09-05T04:01:03.628Z,18.50
2022-09-05T04:02:47.831Z,18.59
2022-09-05T04:04:16.905Z,18.59
2022-09-05T04:08:06.279Z,18.54
2022-09-05T04:08:07.123Z,18.58
2022-09-05T04:08:08.564Z,18.62
2022-09-05T04:08:14.987Z,18.46
2022-09-05T04:08:18.262Z,18.55
2022-09-05T04:08:20.945Z,18.61
2022-09-05T04:08:24.098Z,18.44
2022-09-05T04:08:24.350Z,18.61
2022-09-05T04:08:24.609Z,18.40
2022-09-05T04:08:26.242Z,18.44
2022-09-05T04:08:42.349Z,18.43
2022-09-05T04:09:13.107Z,18.54
2022-09-05T04:09:51.877Z,18.49
2022-09-05T04:10:23.456Z,18.39
2022-09-05T04:10:58.895Z,18.43
2022-09-05T04:11:33.907Z,18.42
2022-09-05T04:12:09.590Z,18.46
2022-09-05T04:12:45.009Z,18.50
2022-09-05T04:13:20.300Z,18.36
2022-09-05T04:13:55.617Z,18.39
2022-09-05T04:14:30.571Z,18.43
2022-09-05T04:15:05.765Z,18.42
2022-09-05T04:15:40.977Z,18.40
2022-09-05T04:16:16.108Z,18.50
2022-09-05T04:16:51.335Z,18.40
2022-09-05T04:17:26.439Z,18.36
2022-09-05T04:18:04.048Z,18.40
2022-09-05T04:18:36.908Z,18.43
2022-09-05T04:19:12.183Z,18.39
2022-09-05T04:19:49.943Z,18.33
2022-09-05T04:20:22.723Z,18.36
2022-09-05T04:21:00.556Z,18.37
2022-09-05T04:21:35.789Z,18.36
2022-09-05T04:22:11.073Z,18.42
2022-09-05T04:22:46.611Z,18.34
2022-09-05T04:23:23.551Z,18.37
2022-09-05T04:23:57.022Z,18.44
2022-09-05T04:24:32.263Z,18.24
2022-09-05T04:25:07.702Z,18.31
2022-09-05T04:25:43.000Z,18.29
2022-09-05T04:26:17.902Z,18.27
2022-09-05T04:26:53.354Z,18.25
2022-09-05T04:27:28.804Z,18.27
2022-09-05T04:28:04.187Z,18.24
2022-09-05T04:28:41.365Z,18.24
2022-09-05T04:29:14.787Z,18.21
2022-09-05T04:29:50.002Z,18.15
2022-09-05T04:30:38.582Z,18.19
2022-09-05T04:31:00.568Z,18.19
2022-09-05T04:31:36.184Z,18.24
2022-09-05T04:32:17.809Z,18.10
2022-09-05T04:32:46.723Z,18.25
2022-09-05T04:33:22.176Z,18.06
2022-09-05T04:33:57.311Z,18.17
2022-09-05T04:34:32.588Z,18.07
2022-09-05T04:35:08.651Z,18.04
2022-09-05T04:35:43.858Z,18.17
2022-09-05T04:36:18.989Z,18.09
2022-09-05T04:36:54.129Z,18.09
2022-09-05T04:37:29.351Z,18.18
2022-09-05T04:38:04.653Z,18.13
2022-09-05T04:38:39.970Z,18.03
2022-09-05T04:39:15.196Z,17.99
2022-09-05T04:39:50.453Z,18.06
2022-09-05T04:40:27.789Z,18.06
2022-09-05T04:41:01.221Z,17.97
2022-09-05T04:41:39.063Z,18.03
2022-09-05T04:42:12.136Z,17.97
2022-09-05T04:42:50.032Z,17.89
2022-09-05T04:43:25.177Z,18.00
2022-09-05T04:44:00.477Z,17.94
2022-09-05T04:44:35.792Z,17.95
2022-09-05T04:45:11.166Z,17.89
2022-09-05T04:45:46.534Z,17.91
2022-09-05T04:46:22.187Z,17.87
2022-09-05T04:46:57.457Z,18.00
2022-09-05T04:47:32.490Z,17.91
2022-09-05T04:48:07.655Z,17.91
2022-09-05T04:48:42.774Z,17.87
2022-09-05T04:49:18.015Z,17.88
2022-09-05T04:50:00.345Z,17.87
2022-09-05T04:50:38.275Z,17.88
2022-09-05T04:51:13.154Z,17.95
2022-09-05T04:51:46.714Z,17.97
2022-09-05T04:52:30.857Z,17.85
2022-09-05T04:52:57.494Z,17.97
2022-09-05T04:53:33.228Z,18.03
2022-09-05T04:54:08.461Z,18.00
2022-09-05T04:54:43.873Z,18.06
2022-09-05T04:55:19.081Z,18.03
2022-09-05T04:55:54.703Z,18.07
2022-09-05T04:56:29.729Z,18.03
2022-09-05T04:57:13.711Z,18.13
2022-09-05T04:57:40.190Z,18.07
2022-09-05T04:58:15.427Z,18.04
2022-09-05T05:01:08.262Z,18.13
2022-09-05T05:05:58.908Z,18.10
2022-09-05T05:05:59.954Z,18.13
2022-09-05T05:06:00.143Z,18.12
2022-09-05T05:06:01.061Z,18.12
2022-09-05T05:06:02.738Z,18.04
2022-09-05T05:06:12.747Z,18.09
2022-09-05T05:06:12.753Z,18.07
2022-09-05T05:06:14.486Z,18.03
2022-09-05T05:06:15.298Z,18.09
2022-09-05T05:06:16.665Z,18.07
2022-09-05T05:06:20.300Z,18.07
2022-09-05T05:06:22.817Z,18.04
2022-09-05T05:06:43.781Z,18.06
2022-09-05T05:07:07.583Z,18.04
2022-09-05T05:07:39.994Z,18.12
2022-09-05T05:08:15.713Z,17.97
2022-09-05T05:08:51.403Z,17.94
2022-09-05T05:09:26.559Z,18.06
2022-09-05T05:10:12.081Z,18.03
2022-09-05T05:16:48.043Z,18.00
2022-09-05T05:17:18.022Z,18.06
2022-09-05T05:17:38.295Z,18.10
2022-09-05T05:17:54.057Z,18.03
2022-09-05T05:17:58.282Z,17.99
2022-09-05T05:17:58.282Z,18.07
2022-09-05T05:17:58.729Z,18.07
2022-09-05T05:18:00.115Z,18.06
2022-09-05T05:18:00.475Z,18.10
2022-09-05T05:18:07.041Z,18.02
2022-09-05T05:18:08.807Z,18.02
2022-09-05T05:18:14.682Z,18.10
2022-09-05T05:18:14.682Z,18.02
2022-09-05T05:18:41.152Z,18.02
2022-09-05T05:19:03.052Z,18.00
2022-09-05T05:19:26.620Z,17.91
2022-09-05T05:20:40.074Z,17.91
2022-09-05T05:20:42.727Z,17.88
2022-09-05T05:21:12.611Z,17.91
2022-09-05T05:21:47.722Z,17.84
2022-09-05T05:22:23.130Z,17.71
2022-09-05T05:22:58.618Z,17.84
2022-09-05T05:23:33.793Z,17.73
2022-09-05T05:24:09.084Z,17.71
2022-09-05T05:24:44.110Z,17.84
2022-09-05T05:25:19.415Z,17.82
2022-09-05T05:25:54.563Z,17.84
2022-09-05T05:26:29.791Z,17.76
2022-09-05T05:27:05.072Z,17.85
2022-09-05T05:27:40.297Z,17.94
2022-09-05T05:28:22.636Z,17.87
2022-09-05T05:28:50.832Z,17.91
2022-09-05T05:29:26.172Z,17.95
2022-09-05T05:30:01.617Z,18.02
2022-09-05T05:30:37.253Z,18.00
2022-09-05T05:31:12.877Z,18.00
2022-09-05T05:31:48.073Z,18.10
2022-09-05T05:32:44.853Z,18.00
2022-09-05T05:32:58.742Z,18.09
2022-09-05T05:33:34.184Z,18.04
2022-09-05T05:34:16.193Z,18.10
2022-09-05T05:34:44.950Z,18.15
2022-09-05T05:35:20.596Z,18.19
2022-09-05T05:35:55.899Z,18.19
2022-09-05T05:36:31.212Z,18.25
2022-09-05T05:37:06.521Z,18.21
2022-09-05T05:37:41.664Z,18.24
2022-09-05T05:38:17.007Z,18.22
2022-09-05T05:38:52.477Z,18.28
2022-09-05T05:39:27.564Z,18.28
2022-09-05T05:40:03.169Z,18.31
2022-09-05T05:40:50.606Z,18.29
2022-09-05T05:41:13.773Z,18.22
2022-09-05T05:41:48.888Z,18.22
2022-09-05T05:42:24.035Z,18.15
2022-09-05T05:42:59.746Z,18.22
2022-09-05T05:43:35.280Z,18.15
2022-09-05T05:44:10.818Z,18.18
2022-09-05T05:44:46.152Z,18.21
2022-09-05T05:45:21.574Z,18.22
2022-09-05T05:45:56.725Z,18.28
2022-09-05T05:46:31.859Z,18.18
2022-09-05T05:47:07.249Z,18.25
2022-09-05T05:47:42.889Z,18.27
2022-09-05T05:48:18.095Z,18.31
2022-09-05T05:48:56.861Z,18.29
2022-09-05T05:49:28.442Z,18.29
2022-09-05T05:50:03.752Z,18.33
2022-09-05T05:50:39.167Z,18.42
2022-09-05T05:51:14.571Z,18.39
2022-09-05T05:52:02.345Z,18.40
2022-09-05T05:52:25.013Z,18.37
2022-09-05T05:53:00.322Z,18.37
2022-09-05T05:53:42.769Z,18.44
2022-09-05T05:54:11.156Z,18.42
2022-09-05T05:54:46.304Z,18.40
2022-09-05T05:55:48.876Z,18.36
2022-09-05T05:55:57.261Z,18.36
2022-09-05T05:56:32.689Z,18.40
2022-09-05T05:57:10.101Z,18.36
2022-09-05T05:57:43.155Z,18.29
2022-09-05T05:58:18.542Z,18.29
2022-09-05T05:58:53.781Z,18.31
2022-09-05T05:59:29.305Z,18.12
2022-09-05T06:00:04.225Z,18.27
2022-09-05T06:00:39.383Z,18.17
2022-09-05T06:01:36.939Z,18.19
2022-09-05T06:01:50.269Z,18.12
2022-09-05T06:02:25.503Z,18.13
2022-09-05T06:03:25.613Z,18.19
2022-09-05T06:03:36.334Z,18.13
2022-09-05T06:04:11.660Z,18.09
2022-09-05T06:04:46.972Z,18.09
2022-09-05T06:05:22.521Z,18.13
2022-09-05T06:05:57.638Z,18.13
2022-09-05T06:06:32.958Z,18.18
2022-09-05T06:07:09.910Z,18.09
2022-09-05T06:09:21.527Z,18.22
2022-09-05T06:11:30.700Z,18.18
2022-09-05T06:12:40.137Z,18.18
2022-09-05T06:14:50.766Z,18.27
2022-09-05T06:14:51.435Z,18.28
2022-09-05T06:14:51.591Z,18.36
2022-09-05T06:14:57.750Z,18.40
2022-09-05T06:14:58.871Z,18.37
2022-09-05T06:15:00.315Z,18.44
2022-09-05T06:15:01.180Z,18.34
2022-09-05T06:15:01.328Z,18.40
2022-09-05T06:15:03.669Z,18.27
2022-09-05T06:15:08.996Z,18.43
2022-09-05T06:15:24.105Z,18.50
2022-09-05T06:15:59.083Z,18.54
2022-09-05T06:16:34.015Z,18.44
2022-09-05T06:17:09.491Z,18.47
2022-09-05T06:17:44.909Z,18.43
2022-09-05T06:18:20.037Z,18.46
2022-09-05T06:18:55.276Z,18.46
2022-09-05T06:19:37.554Z,18.43
2022-09-05T06:21:01.908Z,18.50
2022-09-05T06:22:06.424Z,18.50
2022-09-05T06:22:10.819Z,18.55
2022-09-05T06:22:10.884Z,18.57
2022-09-05T06:22:27.642Z,18.52
2022-09-05T06:23:02.974Z,18.59
2022-09-05T06:23:39.214Z,18.62
2022-09-05T06:24:13.313Z,18.59
2022-09-05T06:24:48.339Z,18.54
2022-09-05T06:25:23.340Z,18.61
2022-09-05T06:25:58.670Z,18.57
2022-09-05T06:26:34.127Z,18.57
2022-09-05T06:27:09.339Z,18.57
2022-09-05T06:28:17.993Z,18.55
2022-09-05T06:28:20.207Z,18.59
2022-09-05T06:28:55.424Z,18.62
2022-09-05T06:29:38.343Z,18.70
2022-09-05T06:30:06.034Z,18.64
2022-09-05T06:30:41.455Z,18.62
2022-09-05T06:31:33.662Z,18.73
2022-09-05T06:31:52.192Z,18.70
2022-09-05T06:32:27.342Z,18.82
2022-09-05T06:33:02.693Z,18.83
2022-09-05T06:33:37.974Z,18.92
2022-09-05T06:34:30.901Z,18.92
2022-09-05T06:34:48.427Z,19.06
2022-09-05T06:35:23.916Z,19.01
2022-09-05T06:36:03.496Z,19.13
2022-09-05T06:36:34.307Z,19.14
2022-09-05T06:37:09.544Z,19.18
2022-09-05T06:37:44.880Z,19.20
2022-09-05T06:38:20.120Z,19.32
2022-09-05T06:38:55.365Z,19.32
2022-09-05T06:39:30.509Z,19.38
2022-09-05T06:40:06.258Z,19.47
2022-09-05T06:40:41.842Z,19.48
2022-09-05T06:41:17.047Z,19.55
2022-09-05T06:41:52.373Z,19.58
2022-09-05T06:42:42.924Z,19.78
2022-09-05T06:43:02.919Z,19.72
2022-09-05T06:43:38.363Z,19.87
2022-09-05T06:44:13.680Z,19.90
2022-09-05T06:44:49.285Z,19.93
2022-09-05T06:45:27.516Z,19.88
2022-09-05T06:45:59.900Z,19.97
2022-09-05T06:46:54.994Z,20.13
2022-09-05T06:47:32.517Z,20.09
2022-09-05T06:47:46.601Z,20.18
2022-09-05T06:48:44.406Z,20.28
2022-09-05T06:49:30.515Z,20.35
2022-09-05T06:49:37.429Z,20.33
2022-09-05T06:50:26.696Z,20.38
2022-09-05T06:51:07.383Z,20.43
2022-09-05T06:51:18.328Z,20.56
2022-09-05T06:52:21.581Z,20.51
2022-09-05T06:52:30.199Z,20.66
2022-09-05T06:53:08.206Z,20.69
2022-09-05T06:53:39.475Z,20.64
2022-09-05T06:54:14.852Z,20.77
2022-09-05T06:54:59.601Z,20.80
2022-09-05T06:55:25.474Z,20.87
2022-09-05T06:56:00.396Z,20.95
2022-09-05T06:56:35.750Z,21.04
2022-09-05T06:57:11.056Z,21.02
2022-09-05T06:57:46.328Z,21.16
2022-09-05T06:58:21.548Z,21.14
2022-09-05T06:58:57.352Z,21.23
2022-09-05T06:59:32.217Z,21.19
2022-09-05T07:00:15.560Z,21.30
2022-09-05T07:00:43.109Z,21.26
2022-09-05T07:01:18.545Z,21.38
2022-09-05T07:02:01.048Z,21.38
2022-09-05T07:02:58.726Z,21.46
2022-09-05T07:03:04.278Z,21.60
2022-09-05T07:03:39.504Z,21.57
2022-09-05T07:05:23.312Z,21.71
2022-09-05T07:05:24.738Z,21.64
2022-09-05T07:05:42.685Z,21.72
2022-09-05T07:06:00.200Z,21.82
2022-09-05T07:06:48.162Z,21.90
2022-09-05T07:07:10.890Z,21.97
2022-09-05T07:07:46.165Z,22.13
2022-09-05T07:08:36.182Z,22.27
2022-09-05T07:08:56.549Z,22.19
2022-09-05T07:09:31.688Z,22.43
2022-09-05T07:10:34.693Z,22.41
2022-09-05T07:10:42.121Z,22.43
2022-09-05T07:11:17.503Z,22.56
2022-09-05T07:11:52.823Z,22.59
2022-09-05T07:12:30.358Z,22.75
2022-09-05T07:13:03.247Z,22.78
2022-09-05T07:13:44.530Z,22.86
2022-09-05T07:14:13.705Z,22.99
2022-09-05T07:14:49.227Z,23.09
2022-09-05T07:15:24.650Z,23.15
2022-09-05T07:16:00.678Z,23.26
2022-09-05T07:16:38.338Z,23.27
2022-09-05T07:17:11.278Z,23.45
2022-09-05T07:18:09.179Z,23.55
2022-09-05T07:18:22.101Z,23.55
2022-09-05T07:19:00.133Z,23.61
2022-09-05T07:19:32.892Z,23.67
2022-09-05T07:20:08.115Z,23.76
2022-09-05T07:21:15.823Z,23.72
2022-09-05T07:21:26.537Z,23.86
2022-09-05T07:21:54.059Z,23.94
2022-09-05T07:22:48.205Z,24.04
2022-09-05T07:23:38.318Z,24.12
2022-09-05T07:24:09.102Z,24.08
2022-09-05T07:24:18.723Z,24.12
2022-09-05T07:24:54.627Z,24.22
2022-09-05T07:25:26.349Z,24.22
2022-09-05T07:26:01.397Z,24.34
2022-09-05T07:26:53.832Z,24.29
2022-09-05T07:27:12.632Z,24.44
2022-09-05T07:28:26.641Z,24.44
2022-09-05T07:28:29.056Z,24.52
2022-09-05T07:28:57.572Z,24.63
2022-09-05T07:29:32.717Z,24.73
2022-09-05T07:30:08.181Z,24.77
2022-09-05T07:30:43.411Z,24.87
2022-09-05T07:31:37.119Z,24.91
2022-09-05T07:31:53.782Z,25.00
2022-09-05T07:32:28.947Z,25.12
2022-09-05T07:33:04.048Z,25.17
2022-09-05T07:33:39.372Z,25.13
2022-09-05T07:34:20.908Z,25.19
2022-09-05T07:34:50.259Z,25.22